createdAt,value
2019-02-16T00:00:53.886Z,102399.79
2019-02-16T00:03:23.205Z,102403.69
2019-02-16T00:05:52.310Z,102401.97
2019-02-16T00:08:21.750Z,102402.23
2019-02-16T00:10:51.130Z,102401.03
2019-02-16T00:13:20.548Z,102399.58
2019-02-16T00:15:49.566Z,102407.66
2019-02-16T00:18:18.764Z,102403.29
2019-02-16T00:20:48.336Z,102405.01
2019-02-16T00:23:17.403Z,102406.70
2019-02-16T00:25:46.410Z,102413.33
2019-02-16T00:28:15.694Z,102407.27
2019-02-16T00:30:45.005Z,102405.75
2019-02-16T00:33:14.021Z,102398.91
2019-02-16T00:35:43.090Z,102406.09
2019-02-16T00:38:12.141Z,102411.22
2019-02-16T00:40:41.488Z,102399.28
2019-02-16T00:43:10.526Z,102405.17
2019-02-16T00:45:39.623Z,102400.23
2019-02-16T00:48:08.704Z,102404.22
2019-02-16T00:50:37.737Z,102406.30
2019-02-16T00:53:06.750Z,102404.11
2019-02-16T00:55:35.806Z,102409.32
2019-02-16T00:58:05.250Z,102401.55
2019-02-16T01:00:34.324Z,102404.77
2019-02-16T01:03:03.378Z,102399.86
2019-02-16T01:05:32.431Z,102396.64
2019-02-16T01:08:01.477Z,102391.52
2019-02-16T01:10:30.604Z,102395.66
2019-02-16T01:12:59.922Z,102375.22
2019-02-16T01:15:29.033Z,102382.03
2019-02-16T01:17:58.820Z,102387.09
2019-02-16T01:20:27.867Z,102386.70
2019-02-16T01:22:56.962Z,102386.83
2019-02-16T01:25:26.323Z,102387.92
2019-02-16T01:27:55.454Z,102384.51
2019-02-16T01:30:24.553Z,102376.56
2019-02-16T01:32:53.898Z,102375.00
2019-02-16T01:35:23.814Z,102370.99
2019-02-16T01:37:53.165Z,102368.30
2019-02-16T01:40:22.301Z,102364.14
2019-02-16T01:42:51.846Z,102361.83
2019-02-16T01:45:21.329Z,102356.34
2019-02-16T01:47:50.432Z,102359.75
2019-02-16T01:50:19.439Z,102362.77
2019-02-16T01:52:48.858Z,102357.84
2019-02-16T01:55:18.329Z,102359.08
2019-02-16T01:57:47.956Z,102355.10
2019-02-16T02:00:17.478Z,102352.91
2019-02-16T02:02:46.584Z,102347.95
2019-02-16T02:05:16.013Z,102352.46
2019-02-16T02:07:45.167Z,102348.30
2019-02-16T02:10:14.555Z,102339.75
2019-02-16T02:12:43.998Z,102336.15
2019-02-16T02:15:13.072Z,102339.89
2019-02-16T02:17:42.181Z,102336.72
2019-02-16T02:20:11.213Z,102338.57
2019-02-16T02:22:40.595Z,102346.84
2019-02-16T02:25:10.978Z,102340.66
2019-02-16T02:27:40.038Z,102343.50
2019-02-16T02:30:09.965Z,102344.77
2019-02-16T02:32:39.403Z,102340.38
2019-02-16T02:35:09.318Z,102340.97
2019-02-16T02:37:38.456Z,102338.09
2019-02-16T02:40:08.001Z,102333.38
2019-02-16T02:42:37.755Z,102339.78
2019-02-16T02:45:08.286Z,102330.88
2019-02-16T02:47:37.415Z,102328.87
2019-02-16T02:50:07.021Z,102315.98
2019-02-16T02:52:36.173Z,102313.17
2019-02-16T02:55:06.544Z,102315.40
2019-02-16T02:57:35.662Z,102315.69
2019-02-16T03:00:05.905Z,102312.11
2019-02-16T03:02:35.188Z,102307.44
2019-02-16T03:05:06.930Z,102312.48
2019-02-16T03:07:36.324Z,102315.27
2019-02-16T03:10:05.616Z,102311.47
2019-02-16T03:12:34.944Z,102312.08
2019-02-16T03:15:04.112Z,102310.67
2019-02-16T03:17:33.581Z,102311.92
2019-02-16T03:20:02.891Z,102314.23
2019-02-16T03:23:13.776Z,102308.15
2019-02-16T03:25:45.998Z,102304.34
2019-02-16T03:28:33.978Z,102308.59
2019-02-16T03:31:59.710Z,102312.36
2019-02-16T03:34:34.129Z,102304.86
2019-02-16T03:37:31.599Z,102299.56
2019-02-16T03:40:00.846Z,102284.13
2019-02-16T03:42:29.982Z,102292.48
2019-02-16T03:44:59.047Z,102282.64
2019-02-16T03:47:28.574Z,102291.72
2019-02-16T03:49:57.999Z,102286.88
2019-02-16T03:52:27.531Z,102295.41
2019-02-16T03:54:56.652Z,102296.33
2019-02-16T03:57:26.700Z,102303.63
2019-02-16T03:59:55.776Z,102310.16
2019-02-16T04:02:25.049Z,102312.84
2019-02-16T04:04:54.220Z,102304.58
2019-02-16T04:07:24.377Z,102304.94
2019-02-16T04:09:53.539Z,102302.50
2019-02-16T04:12:23.030Z,102306.91
2019-02-16T04:14:52.188Z,102312.03
2019-02-16T04:17:21.219Z,102307.67
2019-02-16T04:19:50.280Z,102312.52
2019-02-16T04:22:24.573Z,102309.98
2019-02-16T04:24:50.548Z,102308.83
2019-02-16T04:27:19.619Z,102317.48
2019-02-16T04:29:48.649Z,102315.33
2019-02-16T04:32:18.097Z,102318.69
2019-02-16T04:34:47.121Z,102318.45
2019-02-16T04:37:16.166Z,102320.25
2019-02-16T04:39:45.209Z,102322.08
2019-02-16T04:42:14.264Z,102323.08
2019-02-16T04:44:43.731Z,102327.20
2019-02-16T04:47:12.763Z,102327.42
2019-02-16T04:49:41.783Z,102321.59
2019-02-16T04:52:10.835Z,102321.66
2019-02-16T04:54:40.529Z,102312.93
2019-02-16T04:57:09.681Z,102311.35
2019-02-16T04:59:38.747Z,102316.77
2019-02-16T05:02:08.002Z,102321.14
2019-02-16T05:04:37.440Z,102326.91
2019-02-16T05:07:06.673Z,102330.64
2019-02-16T05:09:36.021Z,102327.28
2019-02-16T05:12:05.294Z,102329.68
2019-02-16T05:14:34.369Z,102321.82
2019-02-16T05:17:03.501Z,102321.82
2019-02-16T05:19:32.563Z,102317.41
2019-02-16T05:22:02.165Z,102316.45
2019-02-16T05:24:31.441Z,102315.63
2019-02-16T05:27:00.484Z,102313.35
2019-02-16T05:29:29.815Z,102316.79
2019-02-16T05:31:59.248Z,102316.70
2019-02-16T05:34:28.359Z,102315.13
2019-02-16T05:36:57.373Z,102313.61
2019-02-16T05:39:26.398Z,102319.08
2019-02-16T05:41:56.208Z,102317.36
2019-02-16T05:44:25.694Z,102313.30
2019-02-16T05:46:54.859Z,102307.41
2019-02-16T05:49:24.473Z,102309.94
2019-02-16T05:51:53.866Z,102300.56
2019-02-16T05:54:23.116Z,102302.62
2019-02-16T05:56:52.115Z,102306.46
2019-02-16T05:59:21.178Z,102298.88
2019-02-16T06:01:53.737Z,102304.65
2019-02-16T06:04:21.477Z,102320.20
2019-02-16T06:06:52.610Z,102333.97
2019-02-16T06:09:22.475Z,102337.30
2019-02-16T06:11:51.551Z,102331.12
2019-02-16T06:14:20.568Z,102340.14
2019-02-16T06:16:50.203Z,102343.44
2019-02-16T06:19:19.273Z,102339.63
2019-02-16T06:21:48.661Z,102347.86
2019-02-16T06:24:17.763Z,102348.53
2019-02-16T06:26:47.203Z,102350.16
2019-02-16T06:29:16.241Z,102351.48
2019-02-16T06:31:45.706Z,102348.68
2019-02-16T06:34:15.117Z,102344.53
2019-02-16T06:36:44.175Z,102347.91
2019-02-16T06:39:13.265Z,102348.56
2019-02-16T06:41:42.338Z,102344.87
2019-02-16T06:44:11.985Z,102349.36
2019-02-16T06:46:41.124Z,102347.27
2019-02-16T06:49:10.523Z,102351.20
2019-02-16T06:51:40.422Z,102357.79
2019-02-16T06:54:09.987Z,102356.55
2019-02-16T06:56:44.377Z,102363.88
2019-02-16T06:59:14.291Z,102374.50
2019-02-16T07:01:43.769Z,102377.12
2019-02-16T07:04:12.841Z,102362.44
2019-02-16T07:06:42.385Z,102367.50
2019-02-16T07:09:11.871Z,102371.77
2019-02-16T07:11:40.959Z,102370.19
2019-02-16T07:14:10.181Z,102368.38
2019-02-16T07:16:54.195Z,102371.25
2019-02-16T07:19:26.265Z,102378.81
2019-02-16T07:21:55.745Z,102388.08
2019-02-16T07:24:25.580Z,102393.35
2019-02-16T07:26:55.037Z,102397.54
2019-02-16T07:29:24.093Z,102391.99
2019-02-16T07:31:53.209Z,102390.27
2019-02-16T07:34:22.571Z,102397.72
2019-02-16T07:36:51.670Z,102393.08
2019-02-16T07:39:20.730Z,102399.19
2019-02-16T07:41:49.765Z,102401.53
2019-02-16T07:44:37.194Z,102403.25
2019-02-16T07:47:43.601Z,102402.26
2019-02-16T07:50:31.615Z,102407.62
2019-02-16T07:53:06.131Z,102408.41
2019-02-16T07:56:01.622Z,102420.41
2019-02-16T07:58:46.651Z,102424.77
2019-02-16T08:01:25.533Z,102422.34
2019-02-16T08:04:12.077Z,102427.27
2019-02-16T08:06:47.497Z,102428.28
2019-02-16T08:09:31.727Z,102420.14
2019-02-16T08:12:14.885Z,102428.59
2019-02-16T08:14:52.551Z,102424.03
2019-02-16T08:17:39.223Z,102419.31
2019-02-16T08:20:27.247Z,102411.83
2019-02-16T08:23:18.003Z,102413.05
2019-02-16T08:26:08.830Z,102411.91
2019-02-16T08:28:58.409Z,102411.16
2019-02-16T08:31:37.143Z,102406.33
2019-02-16T08:34:28.013Z,102414.08
2019-02-16T08:37:16.685Z,102404.41
2019-02-16T08:39:57.341Z,102413.11
2019-02-16T08:42:35.721Z,102411.69
2019-02-16T08:45:27.853Z,102408.70
2019-02-16T08:48:25.343Z,102401.50
2019-02-16T08:51:22.232Z,102404.19
2019-02-16T08:54:09.537Z,102401.19
2019-02-16T08:56:50.482Z,102401.45
2019-02-16T08:59:33.319Z,102401.97
2019-02-16T09:02:33.544Z,102396.77
2019-02-16T09:05:23.535Z,102405.26
2019-02-16T09:08:20.451Z,102412.52
2019-02-16T09:11:08.673Z,102420.88
2019-02-16T09:13:59.611Z,102420.88
2019-02-16T09:16:40.409Z,102420.77
2019-02-16T09:19:19.614Z,102427.41
2019-02-16T09:22:17.830Z,102432.60
2019-02-16T09:25:09.165Z,102425.79
2019-02-16T09:27:56.189Z,102424.80
2019-02-16T09:30:47.542Z,102424.70
2019-02-16T09:33:35.988Z,102427.67
2019-02-16T09:36:30.085Z,102423.30
2019-02-16T09:39:10.544Z,102440.84
2019-02-16T09:42:04.589Z,102439.93
2019-02-16T09:44:48.963Z,102424.22
2019-02-16T09:47:41.767Z,102428.91
2019-02-16T09:50:23.369Z,102425.03
2019-02-16T09:53:17.465Z,102423.10
2019-02-16T09:56:11.800Z,102420.37
2019-02-16T09:59:05.735Z,102416.00
2019-02-16T10:02:09.164Z,102430.89
2019-02-16T10:05:02.806Z,102424.81
2019-02-16T10:07:45.553Z,102437.70
2019-02-16T10:10:22.739Z,102428.70
2019-02-16T10:13:10.570Z,102428.16
2019-02-16T10:16:01.340Z,102431.59
2019-02-16T10:18:49.695Z,102431.48
2019-02-16T10:21:40.478Z,102423.95
2019-02-16T10:24:34.589Z,102433.44
2019-02-16T10:27:37.699Z,102421.95
2019-02-16T10:30:27.664Z,102421.07
2019-02-16T10:33:24.554Z,102423.05
2019-02-16T10:36:06.021Z,102421.19
2019-02-16T10:39:09.110Z,102424.78
2019-02-16T10:42:00.029Z,102421.61
2019-02-16T10:44:53.921Z,102418.63
2019-02-16T10:47:57.447Z,102418.42
2019-02-16T10:50:35.120Z,102409.95
2019-02-16T10:53:14.520Z,102418.81
2019-02-16T10:56:03.067Z,102419.59
2019-02-16T10:58:53.105Z,102421.09
2019-02-16T11:01:44.032Z,102416.52
2019-02-16T11:04:38.324Z,102417.09
2019-02-16T11:07:21.790Z,102420.54
2019-02-16T11:10:22.410Z,102426.52
2019-02-16T11:13:13.573Z,102419.19
2019-02-16T11:16:00.504Z,102427.20
2019-02-16T11:18:42.273Z,102413.58
2019-02-16T11:21:30.267Z,102415.11
2019-02-16T11:24:06.953Z,102416.59
2019-02-16T11:26:54.276Z,102412.98
2019-02-16T11:29:33.427Z,102407.08
2019-02-16T11:32:33.817Z,102399.16
2019-02-16T11:35:34.370Z,102400.59
2019-02-16T11:38:25.412Z,102390.36
2019-02-16T11:41:18.923Z,102385.91
2019-02-16T11:44:03.135Z,102379.97
2019-02-16T11:46:51.200Z,102380.43
2019-02-16T11:49:37.913Z,102366.50
2019-02-16T11:52:32.543Z,102376.42
2019-02-16T11:55:19.235Z,102375.63
2019-02-16T11:58:15.685Z,102369.61
2019-02-16T12:00:54.038Z,102360.86
2019-02-16T12:03:44.003Z,102361.38
2019-02-16T12:06:22.003Z,102361.33
2019-02-16T12:08:57.805Z,102357.45
2019-02-16T12:12:03.973Z,102356.06
2019-02-16T12:14:48.150Z,102353.42
2019-02-16T12:17:45.431Z,102350.10
2019-02-16T12:20:33.943Z,102356.03
2019-02-16T12:23:34.175Z,102351.94
2019-02-16T12:26:18.055Z,102349.94
2019-02-16T12:29:05.645Z,102342.13
2019-02-16T12:32:11.928Z,102338.58
2019-02-16T12:34:58.939Z,102334.48
2019-02-16T12:37:33.785Z,102332.95
2019-02-16T12:40:21.790Z,102340.22
2019-02-16T12:43:00.056Z,102335.00
2019-02-16T12:45:50.655Z,102338.41
2019-02-16T12:48:18.962Z,102334.63
2019-02-16T12:51:06.131Z,102336.20
2019-02-16T12:54:03.043Z,102335.72
2019-02-16T12:56:49.751Z,102334.21
2019-02-16T12:59:43.561Z,102325.97
2019-02-16T13:02:30.255Z,102335.34
2019-02-16T13:05:18.271Z,102333.51
2019-02-16T13:07:52.708Z,102329.16
2019-02-16T13:10:41.021Z,102329.75
2019-02-16T13:13:30.341Z,102322.23
2019-02-16T13:16:18.312Z,102328.62
2019-02-16T13:19:09.187Z,102315.33
2019-02-16T13:21:43.095Z,102322.63
2019-02-16T13:24:34.100Z,102319.58
2019-02-16T13:27:40.526Z,102314.14
2019-02-16T13:30:17.263Z,102309.85
2019-02-16T13:33:17.282Z,102303.77
2019-02-16T13:36:05.279Z,102301.89
2019-02-16T13:38:42.413Z,102308.63
2019-02-16T13:41:24.170Z,102302.39
2019-02-16T13:44:06.625Z,102303.02
2019-02-16T13:47:01.162Z,102302.88
2019-02-16T13:49:36.710Z,102300.69
2019-02-16T13:52:27.589Z,102307.09
2019-02-16T13:55:07.263Z,102303.66
2019-02-16T13:58:01.959Z,102298.21
2019-02-16T14:00:53.358Z,102300.38
2019-02-16T14:03:35.619Z,102294.07
2019-02-16T14:06:23.977Z,102299.11
2019-02-16T14:09:30.229Z,102291.09
2019-02-16T14:12:17.130Z,102284.91
2019-02-16T14:15:11.440Z,102283.68
2019-02-16T14:17:48.303Z,102281.92
2019-02-16T14:20:17.758Z,102287.53
2019-02-16T14:22:46.812Z,102285.36
2019-02-16T14:25:43.765Z,102284.59
2019-02-16T14:28:11.360Z,102281.55
2019-02-16T14:30:40.450Z,102280.69
2019-02-16T14:33:09.462Z,102285.78
2019-02-16T14:35:38.990Z,102273.94
2019-02-16T14:38:36.202Z,102270.76
2019-02-16T14:41:05.359Z,102272.56
2019-02-16T14:43:35.055Z,102276.63
2019-02-16T14:46:04.661Z,102272.96
2019-02-16T14:48:33.702Z,102257.11
2019-02-16T14:51:02.760Z,102267.47
2019-02-16T14:53:31.820Z,102257.41
2019-02-16T14:56:01.208Z,102263.89
2019-02-16T14:58:30.294Z,102261.63
2019-02-16T15:00:59.331Z,102267.75
2019-02-16T15:03:28.384Z,102270.45
2019-02-16T15:05:57.747Z,102255.06
2019-02-16T15:08:26.804Z,102258.65
2019-02-16T15:10:56.161Z,102258.69
2019-02-16T15:13:25.222Z,102256.31
2019-02-16T15:15:54.346Z,102261.50
2019-02-16T15:18:23.508Z,102258.36
2019-02-16T15:20:52.764Z,102257.91
2019-02-16T15:23:21.936Z,102255.91
2019-02-16T15:26:00.503Z,102253.21
2019-02-16T15:28:22.283Z,102247.48
2019-02-16T15:30:51.678Z,102253.27
2019-02-16T15:33:22.270Z,102254.25
2019-02-16T15:35:51.683Z,102258.45
2019-02-16T15:38:20.743Z,102253.55
2019-02-16T15:40:50.102Z,102249.41
2019-02-16T15:43:19.168Z,102254.80
2019-02-16T15:45:48.495Z,102252.45
2019-02-16T15:48:17.565Z,102243.33
2019-02-16T15:50:46.970Z,102240.95
2019-02-16T15:53:16.051Z,102239.50
2019-02-16T15:55:45.382Z,102239.45
2019-02-16T15:58:14.433Z,102235.41
2019-02-16T16:00:43.779Z,102233.07
2019-02-16T16:03:13.182Z,102232.70
2019-02-16T16:05:42.283Z,102227.30
2019-02-16T16:08:22.917Z,102227.17
2019-02-16T16:11:23.182Z,102222.08
2019-02-16T16:14:16.295Z,102225.50
2019-02-16T16:16:55.099Z,102221.55
2019-02-16T16:19:55.073Z,102216.84
2019-02-16T16:22:36.552Z,102218.27
2019-02-16T16:25:27.835Z,102210.99
2019-02-16T16:28:27.782Z,102215.38
2019-02-16T16:31:22.249Z,102220.06
2019-02-16T16:34:08.991Z,102214.62
2019-02-16T16:36:51.120Z,102209.98
2019-02-16T16:39:42.192Z,102214.17
2019-02-16T16:42:24.682Z,102212.31
2019-02-16T16:45:17.460Z,102212.31
2019-02-16T16:48:04.654Z,102218.92
2019-02-16T16:50:42.005Z,102217.27
2019-02-16T16:53:28.823Z,102221.45
2019-02-16T16:56:06.152Z,102222.02
2019-02-16T16:58:50.903Z,102214.69
2019-02-16T17:01:37.034Z,102217.80
2019-02-16T17:04:23.778Z,102219.49
2019-02-16T17:07:14.759Z,102216.92
2019-02-16T17:10:01.888Z,102215.47
2019-02-16T17:12:48.997Z,102222.09
2019-02-16T17:15:52.424Z,102223.51
2019-02-16T17:18:36.916Z,102223.37
2019-02-16T17:21:24.922Z,102217.48
2019-02-16T17:24:11.606Z,102218.75
2019-02-16T17:27:00.040Z,102216.06
2019-02-16T17:29:48.024Z,102227.09
2019-02-16T17:32:29.239Z,102227.63
2019-02-16T17:35:17.242Z,102227.33
2019-02-16T17:37:57.266Z,102227.72
2019-02-16T17:40:31.980Z,102233.17
2019-02-16T17:43:22.741Z,102230.34
2019-02-16T17:46:20.233Z,102233.13
2019-02-16T17:49:07.836Z,102237.02
2019-02-16T17:51:58.952Z,102228.92
2019-02-16T17:54:52.921Z,102233.39
2019-02-16T17:57:53.654Z,102233.89
2019-02-16T18:00:40.636Z,102237.59
2019-02-16T18:03:27.309Z,102241.06
2019-02-16T18:06:12.615Z,102238.32
2019-02-16T18:09:05.631Z,102260.53
2019-02-16T18:11:52.764Z,102258.31
2019-02-16T18:14:51.206Z,102253.91
2019-02-16T18:17:57.230Z,102253.91
2019-02-16T18:20:48.142Z,102249.64
2019-02-16T18:23:31.780Z,102252.48
2019-02-16T18:26:19.777Z,102253.44
2019-02-16T18:29:00.756Z,102257.41
2019-02-16T18:31:55.300Z,102258.83
2019-02-16T18:34:36.736Z,102247.15
2019-02-16T18:37:11.521Z,102247.48
2019-02-16T18:40:08.474Z,102245.73
2019-02-16T18:42:56.433Z,102245.96
2019-02-16T18:45:43.053Z,102243.56
2019-02-16T18:48:30.207Z,102240.07
2019-02-16T18:51:24.209Z,102247.29
2019-02-16T18:54:02.780Z,102245.41
2019-02-16T18:56:53.710Z,102242.28
2019-02-16T18:59:41.705Z,102241.20
2019-02-16T19:02:30.491Z,102235.38
2019-02-16T19:05:16.999Z,102232.98
2019-02-16T19:08:14.128Z,102234.78
2019-02-16T19:10:56.665Z,102231.23
2019-02-16T19:13:43.784Z,102229.67
2019-02-16T19:16:27.217Z,102230.55
2019-02-16T19:19:05.584Z,102235.50
2019-02-16T19:21:45.460Z,102232.98
2019-02-16T19:24:32.921Z,102226.42
2019-02-16T19:27:16.921Z,102226.54
2019-02-16T19:30:04.356Z,102215.45
2019-02-16T19:32:46.446Z,102220.19
2019-02-16T19:35:24.701Z,102219.45
2019-02-16T19:38:15.583Z,102215.69
2019-02-16T19:40:56.140Z,102213.63
2019-02-16T19:43:36.009Z,102215.64
2019-02-16T19:46:14.818Z,102217.19
2019-02-16T19:49:01.497Z,102221.05
2019-02-16T19:51:37.268Z,102224.98
2019-02-16T19:54:24.282Z,102223.84
2019-02-16T19:57:11.176Z,102222.77
2019-02-16T19:59:56.718Z,102226.34
2019-02-16T20:02:42.267Z,102224.41
2019-02-16T20:05:36.851Z,102220.39
2019-02-16T20:08:43.229Z,102217.73
2019-02-16T20:11:34.242Z,102222.52
2019-02-16T20:14:31.425Z,102214.19
2019-02-16T20:17:18.227Z,102194.50
2019-02-16T20:19:58.779Z,102209.97
2019-02-16T20:22:35.775Z,102211.31
2019-02-16T20:25:20.931Z,102207.92
2019-02-16T20:27:56.713Z,102203.77
2019-02-16T20:30:33.644Z,102212.11
2019-02-16T20:33:21.207Z,102208.44
2019-02-16T20:36:04.409Z,102211.76
2019-02-16T20:38:47.515Z,102204.77
2019-02-16T20:41:47.635Z,102205.67
2019-02-16T20:44:27.110Z,102200.19
2019-02-16T20:47:24.268Z,102198.14
2019-02-16T20:50:13.789Z,102201.68
2019-02-16T20:52:59.291Z,102204.90
2019-02-16T20:55:39.582Z,102208.64
2019-02-16T20:58:24.737Z,102210.08
2019-02-16T21:00:59.487Z,102212.97
2019-02-16T21:03:45.860Z,102216.77
2019-02-16T21:06:33.957Z,102211.61
2019-02-16T21:09:31.319Z,102214.13
2019-02-16T21:12:12.049Z,102211.86
2019-02-16T21:14:47.557Z,102216.31
2019-02-16T21:17:47.977Z,102211.36
2019-02-16T21:20:48.060Z,102217.42
2019-02-16T21:23:51.347Z,102212.66
2019-02-16T21:26:45.209Z,102210.31
2019-02-16T21:29:36.042Z,102208.42
2019-02-16T21:32:14.505Z,102212.17
2019-02-16T21:34:58.201Z,102216.30
2019-02-16T21:37:46.197Z,102216.83
2019-02-16T21:40:49.819Z,102215.98
2019-02-16T21:43:29.023Z,102216.83
2019-02-16T21:46:10.922Z,102209.65
2019-02-16T21:49:07.972Z,102217.03
2019-02-16T21:51:53.363Z,102205.52
2019-02-16T21:54:37.605Z,102206.77
2019-02-16T21:57:24.700Z,102203.34
2019-02-16T22:00:18.788Z,102200.68
2019-02-16T22:03:00.795Z,102212.72
2019-02-16T22:05:44.641Z,102202.31
2019-02-16T22:08:23.177Z,102203.05
2019-02-16T22:11:08.275Z,102196.02
2019-02-16T22:13:37.636Z,102194.73
2019-02-16T22:16:06.686Z,102189.79
2019-02-16T22:18:35.728Z,102190.91
2019-02-16T22:21:04.843Z,102188.56
2019-02-16T22:23:33.950Z,102192.35
2019-02-16T22:26:03.281Z,102189.77
2019-02-16T22:28:32.372Z,102189.20
2019-02-16T22:31:01.513Z,102181.63
2019-02-16T22:33:30.545Z,102177.62
2019-02-16T22:35:59.580Z,102160.41
2019-02-16T22:38:28.934Z,102169.75
2019-02-16T22:40:57.933Z,102165.99
2019-02-16T22:43:27.299Z,102164.53
2019-02-16T22:45:56.321Z,102169.13
2019-02-16T22:48:25.700Z,102164.75
2019-02-16T22:50:55.256Z,102166.76
2019-02-16T22:53:24.627Z,102164.31
2019-02-16T22:55:53.843Z,102163.94
2019-02-16T22:58:28.838Z,102168.61
2019-02-16T23:00:55.448Z,102165.77
2019-02-16T23:03:24.479Z,102165.00
2019-02-16T23:05:53.580Z,102161.61
2019-02-16T23:08:22.933Z,102158.95
2019-02-16T23:10:52.359Z,102162.34
2019-02-16T23:13:21.387Z,102155.77
2019-02-16T23:15:50.430Z,102159.45
2019-02-16T23:18:19.850Z,102156.12
2019-02-16T23:20:48.906Z,102154.19
2019-02-16T23:23:17.999Z,102148.52
2019-02-16T23:25:47.040Z,102154.92
2019-02-16T23:28:16.123Z,102152.27
2019-02-16T23:30:45.553Z,102145.72
2019-02-16T23:33:14.987Z,102149.92
2019-02-16T23:35:44.382Z,102147.33
2019-02-16T23:38:13.418Z,102145.27
2019-02-16T23:40:42.436Z,102143.34
2019-02-16T23:43:11.655Z,102134.11
2019-02-16T23:45:40.853Z,102134.46
2019-02-16T23:48:10.366Z,102134.03
2019-02-16T23:50:39.755Z,102131.97
2019-02-16T23:53:08.791Z,102127.29
2019-02-16T23:55:37.833Z,102125.09
2019-02-16T23:58:06.871Z,102127.23
